sensor_id;sensor_type;location;lat;lon;timestamp;P1;durP1;ratioP1;P2;durP2;ratioP2
26098;SDS011;13860;52.370;6.764;2023-12-20T00:03:00;11.65;;;1.92;;
26098;SDS011;13860;52.370;6.764;2023-12-20T00:06:06;10.25;;;2.22;;
26098;SDS011;13860;52.370;6.764;2023-12-20T00:09:14;11.48;;;1.98;;
26098;SDS011;13860;52.370;6.764;2023-12-20T00:12:22;9.13;;;2.10;;
26098;SDS011;13860;52.370;6.764;2023-12-20T00:15:32;14.45;;;1.98;;
26098;SDS011;13860;52.370;6.764;2023-12-20T00:18:38;8.38;;;2.08;;
26098;SDS011;13860;52.370;6.764;2023-12-20T00:21:46;12.10;;;1.88;;
26098;SDS011;13860;52.370;6.764;2023-12-20T00:24:52;12.13;;;2.15;;
26098;SDS011;13860;52.370;6.764;2023-12-20T00:28:01;9.13;;;1.80;;
26098;SDS011;13860;52.370;6.764;2023-12-20T00:31:11;7.32;;;1.80;;
26098;SDS011;13860;52.370;6.764;2023-12-20T00:34:27;10.73;;;2.10;;
26098;SDS011;13860;52.370;6.764;2023-12-20T00:37:41;9.18;;;1.70;;
26098;SDS011;13860;52.370;6.764;2023-12-20T00:40:53;11.52;;;2.08;;
26098;SDS011;13860;52.370;6.764;2023-12-20T00:44:01;4.10;;;1.52;;
26098;SDS011;13860;52.370;6.764;2023-12-20T00:47:13;10.05;;;1.95;;
26098;SDS011;13860;52.370;6.764;2023-12-20T00:50:26;6.78;;;1.90;;
26098;SDS011;13860;52.370;6.764;2023-12-20T00:53:34;10.95;;;1.80;;
26098;SDS011;13860;52.370;6.764;2023-12-20T00:56:45;14.15;;;2.50;;
26098;SDS011;13860;52.370;6.764;2023-12-20T00:59:54;15.23;;;2.83;;
26098;SDS011;13860;52.370;6.764;2023-12-20T01:03:03;11.10;;;2.03;;
26098;SDS011;13860;52.370;6.764;2023-12-20T01:06:11;9.60;;;1.92;;
26098;SDS011;13860;52.370;6.764;2023-12-20T01:09:17;9.50;;;2.20;;
26098;SDS011;13860;52.370;6.764;2023-12-20T01:12:27;19.70;;;2.47;;
26098;SDS011;13860;52.370;6.764;2023-12-20T01:15:33;10.30;;;2.05;;
26098;SDS011;13860;52.370;6.764;2023-12-20T01:18:44;7.88;;;1.98;;
26098;SDS011;13860;52.370;6.764;2023-12-20T01:21:49;17.85;;;2.63;;
26098;SDS011;13860;52.370;6.764;2023-12-20T01:24:57;9.00;;;2.22;;
26098;SDS011;13860;52.370;6.764;2023-12-20T01:28:03;13.02;;;2.90;;
26098;SDS011;13860;52.370;6.764;2023-12-20T01:31:11;14.15;;;2.83;;
26098;SDS011;13860;52.370;6.764;2023-12-20T01:34:19;14.73;;;2.00;;
26098;SDS011;13860;52.370;6.764;2023-12-20T01:37:27;12.57;;;2.63;;
26098;SDS011;13860;52.370;6.764;2023-12-20T01:40:33;10.52;;;2.47;;
26098;SDS011;13860;52.370;6.764;2023-12-20T01:43:40;14.38;;;2.92;;
26098;SDS011;13860;52.370;6.764;2023-12-20T01:46:52;10.88;;;2.72;;
26098;SDS011;13860;52.370;6.764;2023-12-20T01:50:03;16.02;;;3.28;;
26098;SDS011;13860;52.370;6.764;2023-12-20T01:53:11;14.13;;;2.70;;
26098;SDS011;13860;52.370;6.764;2023-12-20T01:56:19;15.63;;;4.07;;
26098;SDS011;13860;52.370;6.764;2023-12-20T01:59:25;15.60;;;3.22;;
26098;SDS011;13860;52.370;6.764;2023-12-20T02:02:33;17.45;;;2.70;;
26098;SDS011;13860;52.370;6.764;2023-12-20T02:05:44;18.73;;;3.33;;
26098;SDS011;13860;52.370;6.764;2023-12-20T02:08:52;16.45;;;2.67;;
26098;SDS011;13860;52.370;6.764;2023-12-20T02:11:58;16.52;;;3.70;;
26098;SDS011;13860;52.370;6.764;2023-12-20T02:15:13;24.92;;;3.50;;
26098;SDS011;13860;52.370;6.764;2023-12-20T02:18:21;14.68;;;2.53;;
26098;SDS011;13860;52.370;6.764;2023-12-20T02:21:36;17.00;;;2.08;;
26098;SDS011;13860;52.370;6.764;2023-12-20T02:25:01;12.27;;;2.92;;
26098;SDS011;13860;52.370;6.764;2023-12-20T02:28:16;16.55;;;2.40;;
26098;SDS011;13860;52.370;6.764;2023-12-20T02:31:24;11.85;;;3.05;;
26098;SDS011;13860;52.370;6.764;2023-12-20T02:34:34;18.10;;;3.35;;
26098;SDS011;13860;52.370;6.764;2023-12-20T02:37:49;12.35;;;2.30;;
26098;SDS011;13860;52.370;6.764;2023-12-20T02:40:57;16.65;;;2.03;;
26098;SDS011;13860;52.370;6.764;2023-12-20T02:44:03;14.07;;;1.92;;
26098;SDS011;13860;52.370;6.764;2023-12-20T02:47:10;16.75;;;3.22;;
26098;SDS011;13860;52.370;6.764;2023-12-20T02:50:16;13.10;;;2.83;;
26098;SDS011;13860;52.370;6.764;2023-12-20T02:53:26;12.77;;;2.45;;
26098;SDS011;13860;52.370;6.764;2023-12-20T02:56:32;16.50;;;2.22;;
26098;SDS011;13860;52.370;6.764;2023-12-20T02:59:39;15.38;;;3.20;;
26098;SDS011;13860;52.370;6.764;2023-12-20T03:02:45;22.15;;;2.35;;
26098;SDS011;13860;52.370;6.764;2023-12-20T03:05:53;8.57;;;2.03;;
26098;SDS011;13860;52.370;6.764;2023-12-20T03:09:01;19.13;;;2.75;;
26098;SDS011;13860;52.370;6.764;2023-12-20T03:12:09;11.93;;;2.15;;
26098;SDS011;13860;52.370;6.764;2023-12-20T03:15:14;28.17;;;3.00;;
26098;SDS011;13860;52.370;6.764;2023-12-20T03:18:22;12.77;;;2.28;;
26098;SDS011;13860;52.370;6.764;2023-12-20T03:21:30;14.40;;;2.10;;
26098;SDS011;13860;52.370;6.764;2023-12-20T03:24:40;22.00;;;2.58;;
26098;SDS011;13860;52.370;6.764;2023-12-20T03:27:45;17.92;;;2.50;;
26098;SDS011;13860;52.370;6.764;2023-12-20T03:30:53;15.38;;;2.72;;
26098;SDS011;13860;52.370;6.764;2023-12-20T03:33:59;15.63;;;2.47;;
26098;SDS011;13860;52.370;6.764;2023-12-20T03:37:07;17.70;;;2.30;;
26098;SDS011;13860;52.370;6.764;2023-12-20T03:40:15;27.35;;;3.50;;
26098;SDS011;13860;52.370;6.764;2023-12-20T03:43:23;22.98;;;3.00;;
26098;SDS011;13860;52.370;6.764;2023-12-20T03:46:28;20.70;;;2.55;;
26098;SDS011;13860;52.370;6.764;2023-12-20T03:49:36;13.27;;;2.45;;
26098;SDS011;13860;52.370;6.764;2023-12-20T03:52:42;18.90;;;2.88;;
26098;SDS011;13860;52.370;6.764;2023-12-20T03:55:52;20.92;;;3.08;;
26098;SDS011;13860;52.370;6.764;2023-12-20T03:58:57;22.85;;;2.55;;
26098;SDS011;13860;52.370;6.764;2023-12-20T04:02:05;28.92;;;4.28;;
26098;SDS011;13860;52.370;6.764;2023-12-20T04:05:10;20.27;;;3.20;;
26098;SDS011;13860;52.370;6.764;2023-12-20T04:08:20;21.30;;;3.38;;
26098;SDS011;13860;52.370;6.764;2023-12-20T04:11:29;23.95;;;2.92;;
26098;SDS011;13860;52.370;6.764;2023-12-20T04:14:42;25.40;;;3.30;;
26098;SDS011;13860;52.370;6.764;2023-12-20T04:17:49;21.02;;;3.50;;
26098;SDS011;13860;52.370;6.764;2023-12-20T04:21:06;20.20;;;3.95;;
26098;SDS011;13860;52.370;6.764;2023-12-20T04:24:19;27.42;;;3.00;;
26098;SDS011;13860;52.370;6.764;2023-12-20T04:27:30;22.20;;;3.28;;
26098;SDS011;13860;52.370;6.764;2023-12-20T04:30:35;22.05;;;3.15;;
26098;SDS011;13860;52.370;6.764;2023-12-20T04:33:43;20.02;;;3.30;;
26098;SDS011;13860;52.370;6.764;2023-12-20T04:36:49;22.85;;;2.97;;
26098;SDS011;13860;52.370;6.764;2023-12-20T04:39:57;16.73;;;2.53;;
26098;SDS011;13860;52.370;6.764;2023-12-20T04:43:06;19.48;;;3.08;;
26098;SDS011;13860;52.370;6.764;2023-12-20T04:46:14;18.17;;;2.70;;
26098;SDS011;13860;52.370;6.764;2023-12-20T04:49:20;28.48;;;3.58;;
26098;SDS011;13860;52.370;6.764;2023-12-20T04:52:28;25.02;;;4.07;;
26098;SDS011;13860;52.370;6.764;2023-12-20T04:55:33;30.10;;;4.75;;
26098;SDS011;13860;52.370;6.764;2023-12-20T04:58:44;18.75;;;2.72;;
26098;SDS011;13860;52.370;6.764;2023-12-20T05:01:50;27.40;;;2.70;;
26098;SDS011;13860;52.370;6.764;2023-12-20T05:04:58;22.23;;;4.00;;
26098;SDS011;13860;52.370;6.764;2023-12-20T05:08:04;24.80;;;3.05;;
26098;SDS011;13860;52.370;6.764;2023-12-20T05:11:12;16.98;;;3.22;;
26098;SDS011;13860;52.370;6.764;2023-12-20T05:14:21;21.42;;;3.45;;
26098;SDS011;13860;52.370;6.764;2023-12-20T05:17:29;25.17;;;3.33;;
26098;SDS011;13860;52.370;6.764;2023-12-20T05:20:34;18.42;;;2.55;;
26098;SDS011;13860;52.370;6.764;2023-12-20T05:23:42;23.17;;;3.60;;
26098;SDS011;13860;52.370;6.764;2023-12-20T05:26:48;10.10;;;2.03;;
26098;SDS011;13860;52.370;6.764;2023-12-20T05:29:59;33.05;;;3.17;;
26098;SDS011;13860;52.370;6.764;2023-12-20T05:33:07;23.60;;;2.63;;
26098;SDS011;13860;52.370;6.764;2023-12-20T05:36:15;22.52;;;3.45;;
26098;SDS011;13860;52.370;6.764;2023-12-20T05:39:20;20.80;;;4.03;;
26098;SDS011;13860;52.370;6.764;2023-12-20T05:42:28;33.42;;;4.38;;
26098;SDS011;13860;52.370;6.764;2023-12-20T05:45:37;22.55;;;3.10;;
26098;SDS011;13860;52.370;6.764;2023-12-20T05:48:44;25.30;;;3.33;;
26098;SDS011;13860;52.370;6.764;2023-12-20T05:51:53;25.20;;;3.13;;
26098;SDS011;13860;52.370;6.764;2023-12-20T05:55:03;26.25;;;3.83;;
26098;SDS011;13860;52.370;6.764;2023-12-20T05:58:09;21.10;;;3.67;;
26098;SDS011;13860;52.370;6.764;2023-12-20T06:01:19;24.00;;;3.60;;
26098;SDS011;13860;52.370;6.764;2023-12-20T06:04:29;29.67;;;3.00;;
26098;SDS011;13860;52.370;6.764;2023-12-20T06:07:39;23.20;;;3.22;;
26098;SDS011;13860;52.370;6.764;2023-12-20T06:10:48;26.33;;;3.30;;
26098;SDS011;13860;52.370;6.764;2023-12-20T06:13:57;27.88;;;3.33;;
26098;SDS011;13860;52.370;6.764;2023-12-20T06:17:08;13.68;;;3.25;;
26098;SDS011;13860;52.370;6.764;2023-12-20T06:20:23;22.52;;;2.83;;
26098;SDS011;13860;52.370;6.764;2023-12-20T06:23:29;18.90;;;3.28;;
26098;SDS011;13860;52.370;6.764;2023-12-20T06:26:39;26.33;;;3.80;;
26098;SDS011;13860;52.370;6.764;2023-12-20T06:29:45;21.17;;;2.85;;
26098;SDS011;13860;52.370;6.764;2023-12-20T06:32:55;24.10;;;4.13;;
26098;SDS011;13860;52.370;6.764;2023-12-20T06:36:01;33.20;;;4.10;;
26098;SDS011;13860;52.370;6.764;2023-12-20T06:39:12;24.48;;;3.35;;
26098;SDS011;13860;52.370;6.764;2023-12-20T06:42:18;21.02;;;3.20;;
26098;SDS011;13860;52.370;6.764;2023-12-20T06:45:25;20.88;;;3.33;;
26098;SDS011;13860;52.370;6.764;2023-12-20T06:48:34;16.63;;;3.47;;
26098;SDS011;13860;52.370;6.764;2023-12-20T06:51:41;21.10;;;3.50;;
26098;SDS011;13860;52.370;6.764;2023-12-20T06:54:47;21.00;;;3.83;;
26098;SDS011;13860;52.370;6.764;2023-12-20T06:57:55;19.25;;;3.60;;
26098;SDS011;13860;52.370;6.764;2023-12-20T07:01:00;21.92;;;3.47;;
26098;SDS011;13860;52.370;6.764;2023-12-20T07:04:11;19.15;;;4.13;;
26098;SDS011;13860;52.370;6.764;2023-12-20T07:07:17;23.10;;;2.75;;
26098;SDS011;13860;52.370;6.764;2023-12-20T07:10:33;17.42;;;3.15;;
26098;SDS011;13860;52.370;6.764;2023-12-20T07:13:40;31.85;;;6.72;;
26098;SDS011;13860;52.370;6.764;2023-12-20T07:16:48;26.77;;;4.28;;
26098;SDS011;13860;52.370;6.764;2023-12-20T07:19:57;21.25;;;2.95;;
26098;SDS011;13860;52.370;6.764;2023-12-20T07:23:09;20.08;;;2.95;;
26098;SDS011;13860;52.370;6.764;2023-12-20T07:26:15;35.25;;;3.63;;
26098;SDS011;13860;52.370;6.764;2023-12-20T07:29:25;25.17;;;3.78;;
26098;SDS011;13860;52.370;6.764;2023-12-20T07:32:31;25.73;;;3.65;;
26098;SDS011;13860;52.370;6.764;2023-12-20T07:35:43;22.67;;;3.00;;
26098;SDS011;13860;52.370;6.764;2023-12-20T07:38:49;25.20;;;3.80;;
26098;SDS011;13860;52.370;6.764;2023-12-20T07:41:59;25.77;;;3.50;;
26098;SDS011;13860;52.370;6.764;2023-12-20T07:45:10;17.73;;;3.47;;
26098;SDS011;13860;52.370;6.764;2023-12-20T07:48:32;22.38;;;3.15;;
26098;SDS011;13860;52.370;6.764;2023-12-20T07:51:55;15.18;;;2.92;;
26098;SDS011;13860;52.370;6.764;2023-12-20T07:55:06;23.27;;;3.33;;
26098;SDS011;13860;52.370;6.764;2023-12-20T07:58:19;14.90;;;2.92;;
26098;SDS011;13860;52.370;6.764;2023-12-20T08:01:45;20.27;;;2.70;;
26098;SDS011;13860;52.370;6.764;2023-12-20T08:05:03;16.73;;;3.40;;
26098;SDS011;13860;52.370;6.764;2023-12-20T08:08:14;35.58;;;3.15;;
26098;SDS011;13860;52.370;6.764;2023-12-20T08:11:20;22.02;;;2.15;;
26098;SDS011;13860;52.370;6.764;2023-12-20T08:14:33;22.85;;;3.33;;
26098;SDS011;13860;52.370;6.764;2023-12-20T08:17:40;17.70;;;2.38;;
26098;SDS011;13860;52.370;6.764;2023-12-20T08:21:01;30.15;;;3.58;;
26098;SDS011;13860;52.370;6.764;2023-12-20T08:24:20;24.17;;;3.40;;
26098;SDS011;13860;52.370;6.764;2023-12-20T08:27:31;26.65;;;3.17;;
26098;SDS011;13860;52.370;6.764;2023-12-20T08:30:37;19.00;;;3.28;;
26098;SDS011;13860;52.370;6.764;2023-12-20T08:33:49;28.50;;;3.60;;
26098;SDS011;13860;52.370;6.764;2023-12-20T08:37:13;33.03;;;4.07;;
26098;SDS011;13860;52.370;6.764;2023-12-20T08:40:24;28.80;;;4.70;;
26098;SDS011;13860;52.370;6.764;2023-12-20T08:43:34;19.65;;;3.47;;
26098;SDS011;13860;52.370;6.764;2023-12-20T08:46:44;24.88;;;3.20;;
26098;SDS011;13860;52.370;6.764;2023-12-20T08:50:07;16.77;;;2.72;;
26098;SDS011;13860;52.370;6.764;2023-12-20T08:53:20;21.48;;;2.85;;
26098;SDS011;13860;52.370;6.764;2023-12-20T08:56:29;19.95;;;3.22;;
26098;SDS011;13860;52.370;6.764;2023-12-20T08:59:39;24.67;;;3.22;;
26098;SDS011;13860;52.370;6.764;2023-12-20T09:02:47;17.58;;;3.03;;
26098;SDS011;13860;52.370;6.764;2023-12-20T09:05:59;24.15;;;4.30;;
26098;SDS011;13860;52.370;6.764;2023-12-20T09:09:09;36.00;;;3.95;;
26098;SDS011;13860;52.370;6.764;2023-12-20T09:12:24;20.08;;;4.30;;
26098;SDS011;13860;52.370;6.764;2023-12-20T09:15:30;25.25;;;3.63;;
26098;SDS011;13860;52.370;6.764;2023-12-20T09:18:42;22.00;;;2.92;;
26098;SDS011;13860;52.370;6.764;2023-12-20T09:21:56;22.52;;;3.30;;
26098;SDS011;13860;52.370;6.764;2023-12-20T09:25:07;25.48;;;3.40;;
26098;SDS011;13860;52.370;6.764;2023-12-20T09:28:28;22.77;;;3.55;;
26098;SDS011;13860;52.370;6.764;2023-12-20T09:31:45;21.65;;;3.65;;
26098;SDS011;13860;52.370;6.764;2023-12-20T09:34:53;14.68;;;3.47;;
26098;SDS011;13860;52.370;6.764;2023-12-20T09:38:14;26.35;;;3.42;;
26098;SDS011;13860;52.370;6.764;2023-12-20T09:41:20;26.35;;;4.35;;
26098;SDS011;13860;52.370;6.764;2023-12-20T09:44:30;19.25;;;3.17;;
26098;SDS011;13860;52.370;6.764;2023-12-20T09:47:50;21.73;;;3.90;;
26098;SDS011;13860;52.370;6.764;2023-12-20T09:51:02;20.10;;;3.58;;
26098;SDS011;13860;52.370;6.764;2023-12-20T09:54:10;20.30;;;3.10;;
26098;SDS011;13860;52.370;6.764;2023-12-20T09:57:22;31.00;;;3.78;;
26098;SDS011;13860;52.370;6.764;2023-12-20T10:00:39;30.27;;;3.88;;
26098;SDS011;13860;52.370;6.764;2023-12-20T10:03:47;26.10;;;4.07;;
26098;SDS011;13860;52.370;6.764;2023-12-20T10:06:55;32.40;;;3.40;;
26098;SDS011;13860;52.370;6.764;2023-12-20T10:10:10;27.23;;;4.43;;
26098;SDS011;13860;52.370;6.764;2023-12-20T10:13:20;19.30;;;3.30;;
26098;SDS011;13860;52.370;6.764;2023-12-20T10:16:31;24.05;;;3.10;;
26098;SDS011;13860;52.370;6.764;2023-12-20T10:19:43;17.30;;;2.78;;
26098;SDS011;13860;52.370;6.764;2023-12-20T10:22:52;33.35;;;4.43;;
26098;SDS011;13860;52.370;6.764;2023-12-20T10:25:58;16.13;;;3.58;;
26098;SDS011;13860;52.370;6.764;2023-12-20T10:29:09;35.35;;;3.92;;
26098;SDS011;13860;52.370;6.764;2023-12-20T10:32:26;23.95;;;3.85;;
26098;SDS011;13860;52.370;6.764;2023-12-20T10:38:43;30.63;;;3.90;;
26098;SDS011;13860;52.370;6.764;2023-12-20T10:41:53;24.00;;;3.90;;
26098;SDS011;13860;52.370;6.764;2023-12-20T10:44:59;19.65;;;3.67;;
26098;SDS011;13860;52.370;6.764;2023-12-20T10:48:12;21.83;;;3.70;;
26098;SDS011;13860;52.370;6.764;2023-12-20T10:51:35;19.42;;;3.47;;
26098;SDS011;13860;52.370;6.764;2023-12-20T10:54:45;27.73;;;3.42;;
26098;SDS011;13860;52.370;6.764;2023-12-20T10:57:53;27.75;;;3.90;;
26098;SDS011;13860;52.370;6.764;2023-12-20T11:01:07;29.13;;;3.92;;
26098;SDS011;13860;52.370;6.764;2023-12-20T11:04:18;33.08;;;4.03;;
26098;SDS011;13860;52.370;6.764;2023-12-20T11:07:31;34.97;;;3.78;;
26098;SDS011;13860;52.370;6.764;2023-12-20T11:10:41;33.00;;;4.93;;
26098;SDS011;13860;52.370;6.764;2023-12-20T11:14:07;28.15;;;3.95;;
26098;SDS011;13860;52.370;6.764;2023-12-20T11:17:39;26.52;;;3.50;;
26098;SDS011;13860;52.370;6.764;2023-12-20T11:20:49;21.33;;;3.70;;
26098;SDS011;13860;52.370;6.764;2023-12-20T11:23:55;26.60;;;4.13;;
26098;SDS011;13860;52.370;6.764;2023-12-20T11:27:03;10.45;;;1.67;;
26098;SDS011;13860;52.370;6.764;2023-12-20T11:30:09;9.07;;;1.60;;
26098;SDS011;13860;52.370;6.764;2023-12-20T11:33:20;11.13;;;1.77;;
26098;SDS011;13860;52.370;6.764;2023-12-20T11:36:33;6.32;;;1.63;;
26098;SDS011;13860;52.370;6.764;2023-12-20T11:39:43;12.75;;;1.75;;
26098;SDS011;13860;52.370;6.764;2023-12-20T11:42:49;11.82;;;1.67;;
26098;SDS011;13860;52.370;6.764;2023-12-20T11:46:02;7.88;;;1.50;;
26098;SDS011;13860;52.370;6.764;2023-12-20T11:49:09;13.65;;;2.50;;
26098;SDS011;13860;52.370;6.764;2023-12-20T11:52:20;8.13;;;1.55;;
26098;SDS011;13860;52.370;6.764;2023-12-20T11:55:25;13.10;;;2.90;;
26098;SDS011;13860;52.370;6.764;2023-12-20T11:58:33;7.30;;;2.10;;
26098;SDS011;13860;52.370;6.764;2023-12-20T12:01:39;15.05;;;2.50;;
26098;SDS011;13860;52.370;6.764;2023-12-20T12:04:48;15.90;;;2.30;;
26098;SDS011;13860;52.370;6.764;2023-12-20T12:07:56;12.00;;;1.50;;
26098;SDS011;13860;52.370;6.764;2023-12-20T12:11:04;13.23;;;2.03;;
26098;SDS011;13860;52.370;6.764;2023-12-20T12:14:10;13.85;;;1.95;;
26098;SDS011;13860;52.370;6.764;2023-12-20T12:17:19;13.77;;;2.88;;
26098;SDS011;13860;52.370;6.764;2023-12-20T12:20:25;10.05;;;1.60;;
26098;SDS011;13860;52.370;6.764;2023-12-20T12:23:35;14.40;;;2.05;;
26098;SDS011;13860;52.370;6.764;2023-12-20T12:26:41;7.70;;;1.85;;
26098;SDS011;13860;52.370;6.764;2023-12-20T12:29:59;11.27;;;2.13;;
26098;SDS011;13860;52.370;6.764;2023-12-20T12:33:06;7.72;;;1.75;;
26098;SDS011;13860;52.370;6.764;2023-12-20T12:36:14;1.90;;;0.88;;
26098;SDS011;13860;52.370;6.764;2023-12-20T12:39:23;9.68;;;1.52;;
26098;SDS011;13860;52.370;6.764;2023-12-20T12:42:31;10.00;;;2.25;;
26098;SDS011;13860;52.370;6.764;2023-12-20T12:45:37;4.78;;;1.35;;
26098;SDS011;13860;52.370;6.764;2023-12-20T12:48:44;8.18;;;1.25;;
26098;SDS011;13860;52.370;6.764;2023-12-20T12:51:51;9.55;;;2.05;;
26098;SDS011;13860;52.370;6.764;2023-12-20T12:55:03;6.07;;;1.40;;
26098;SDS011;13860;52.370;6.764;2023-12-20T12:58:09;10.70;;;2.25;;
26098;SDS011;13860;52.370;6.764;2023-12-20T13:01:17;8.45;;;1.90;;
26098;SDS011;13860;52.370;6.764;2023-12-20T13:04:23;10.23;;;1.55;;
26098;SDS011;13860;52.370;6.764;2023-12-20T13:07:30;3.40;;;1.13;;
26098;SDS011;13860;52.370;6.764;2023-12-20T13:10:38;11.02;;;1.67;;
26098;SDS011;13860;52.370;6.764;2023-12-20T13:13:46;8.23;;;1.77;;
26098;SDS011;13860;52.370;6.764;2023-12-20T13:16:52;12.52;;;2.03;;
26098;SDS011;13860;52.370;6.764;2023-12-20T13:19:59;8.13;;;1.23;;
26098;SDS011;13860;52.370;6.764;2023-12-20T13:23:05;10.40;;;1.95;;
26098;SDS011;13860;52.370;6.764;2023-12-20T13:26:16;10.80;;;1.83;;
26098;SDS011;13860;52.370;6.764;2023-12-20T13:29:21;13.05;;;2.20;;
26098;SDS011;13860;52.370;6.764;2023-12-20T13:32:31;8.73;;;2.70;;
26098;SDS011;13860;52.370;6.764;2023-12-20T13:35:37;15.82;;;1.65;;
26098;SDS011;13860;52.370;6.764;2023-12-20T13:38:45;4.63;;;1.60;;
26098;SDS011;13860;52.370;6.764;2023-12-20T13:41:53;11.45;;;2.13;;
26098;SDS011;13860;52.370;6.764;2023-12-20T13:45:05;8.17;;;1.90;;
26098;SDS011;13860;52.370;6.764;2023-12-20T13:48:11;8.18;;;1.70;;
26098;SDS011;13860;52.370;6.764;2023-12-20T13:51:19;8.68;;;2.42;;
26098;SDS011;13860;52.370;6.764;2023-12-20T13:54:25;16.60;;;1.77;;
26098;SDS011;13860;52.370;6.764;2023-12-20T13:57:35;10.52;;;1.60;;
26098;SDS011;13860;52.370;6.764;2023-12-20T14:00:56;12.37;;;2.20;;
26098;SDS011;13860;52.370;6.764;2023-12-20T14:04:03;19.23;;;2.72;;
26098;SDS011;13860;52.370;6.764;2023-12-20T14:07:09;10.60;;;2.35;;
26098;SDS011;13860;52.370;6.764;2023-12-20T14:10:17;18.75;;;2.63;;
26098;SDS011;13860;52.370;6.764;2023-12-20T14:13:25;12.85;;;2.20;;
26098;SDS011;13860;52.370;6.764;2023-12-20T14:16:34;19.88;;;2.85;;
26098;SDS011;13860;52.370;6.764;2023-12-20T14:19:40;12.35;;;2.45;;
26098;SDS011;13860;52.370;6.764;2023-12-20T14:22:47;10.48;;;2.28;;
26098;SDS011;13860;52.370;6.764;2023-12-20T14:25:53;20.75;;;3.05;;
26098;SDS011;13860;52.370;6.764;2023-12-20T14:29:05;16.40;;;2.25;;
26098;SDS011;13860;52.370;6.764;2023-12-20T14:32:12;16.08;;;3.17;;
26098;SDS011;13860;52.370;6.764;2023-12-20T14:35:20;16.65;;;3.05;;
26098;SDS011;13860;52.370;6.764;2023-12-20T14:38:28;14.55;;;2.45;;
26098;SDS011;13860;52.370;6.764;2023-12-20T14:41:35;16.50;;;2.50;;
26098;SDS011;13860;52.370;6.764;2023-12-20T14:44:44;14.50;;;2.88;;
26098;SDS011;13860;52.370;6.764;2023-12-20T14:51:04;14.95;;;2.72;;
26098;SDS011;13860;52.370;6.764;2023-12-20T14:54:11;19.63;;;3.10;;
26098;SDS011;13860;52.370;6.764;2023-12-20T14:57:17;17.25;;;3.33;;
26098;SDS011;13860;52.370;6.764;2023-12-20T15:00:27;13.80;;;3.20;;
26098;SDS011;13860;52.370;6.764;2023-12-20T15:03:33;19.58;;;2.33;;
26098;SDS011;13860;52.370;6.764;2023-12-20T15:06:40;10.40;;;2.40;;
26098;SDS011;13860;52.370;6.764;2023-12-20T15:09:47;19.80;;;2.33;;
26098;SDS011;13860;52.370;6.764;2023-12-20T15:12:54;16.98;;;2.88;;
26098;SDS011;13860;52.370;6.764;2023-12-20T15:16:03;10.82;;;2.38;;
26098;SDS011;13860;52.370;6.764;2023-12-20T15:19:11;21.38;;;4.40;;
26098;SDS011;13860;52.370;6.764;2023-12-20T15:22:18;22.95;;;2.88;;
26098;SDS011;13860;52.370;6.764;2023-12-20T15:25:25;25.65;;;3.13;;
26098;SDS011;13860;52.370;6.764;2023-12-20T15:28:31;12.77;;;2.88;;
26098;SDS011;13860;52.370;6.764;2023-12-20T15:31:44;19.63;;;2.75;;
26098;SDS011;13860;52.370;6.764;2023-12-20T15:34:51;12.88;;;2.60;;
26098;SDS011;13860;52.370;6.764;2023-12-20T15:37:59;16.42;;;3.38;;
26098;SDS011;13860;52.370;6.764;2023-12-20T15:41:06;20.63;;;3.35;;
26098;SDS011;13860;52.370;6.764;2023-12-20T15:44:13;24.90;;;3.70;;
26098;SDS011;13860;52.370;6.764;2023-12-20T15:47:21;18.88;;;3.38;;
26098;SDS011;13860;52.370;6.764;2023-12-20T15:50:29;23.33;;;2.65;;
26098;SDS011;13860;52.370;6.764;2023-12-20T15:53:35;16.55;;;3.63;;
26098;SDS011;13860;52.370;6.764;2023-12-20T15:56:43;26.83;;;4.63;;
26098;SDS011;13860;52.370;6.764;2023-12-20T15:59:49;12.75;;;3.67;;
26098;SDS011;13860;52.370;6.764;2023-12-20T16:03:00;25.45;;;4.05;;
26098;SDS011;13860;52.370;6.764;2023-12-20T16:06:05;25.42;;;3.30;;
26098;SDS011;13860;52.370;6.764;2023-12-20T16:09:13;23.85;;;2.63;;
26098;SDS011;13860;52.370;6.764;2023-12-20T16:12:18;14.93;;;2.60;;
26098;SDS011;13860;52.370;6.764;2023-12-20T16:15:26;14.90;;;2.63;;
26098;SDS011;13860;52.370;6.764;2023-12-20T16:18:34;24.13;;;2.55;;
26098;SDS011;13860;52.370;6.764;2023-12-20T16:21:42;18.08;;;3.08;;
26098;SDS011;13860;52.370;6.764;2023-12-20T16:24:48;17.38;;;3.25;;
26098;SDS011;13860;52.370;6.764;2023-12-20T16:27:55;30.30;;;3.28;;
26098;SDS011;13860;52.370;6.764;2023-12-20T16:31:01;22.83;;;3.35;;
26098;SDS011;13860;52.370;6.764;2023-12-20T16:34:11;18.13;;;3.55;;
26098;SDS011;13860;52.370;6.764;2023-12-20T16:37:17;19.05;;;3.38;;
26098;SDS011;13860;52.370;6.764;2023-12-20T16:40:24;9.48;;;2.17;;
26098;SDS011;13860;52.370;6.764;2023-12-20T16:43:30;16.00;;;2.88;;
26098;SDS011;13860;52.370;6.764;2023-12-20T16:46:38;15.38;;;2.97;;
26098;SDS011;13860;52.370;6.764;2023-12-20T16:49:46;18.08;;;3.15;;
26098;SDS011;13860;52.370;6.764;2023-12-20T16:52:54;19.80;;;2.88;;
26098;SDS011;13860;52.370;6.764;2023-12-20T16:55:59;13.25;;;2.53;;
26098;SDS011;13860;52.370;6.764;2023-12-20T16:59:07;26.40;;;4.72;;
26098;SDS011;13860;52.370;6.764;2023-12-20T17:02:13;14.93;;;4.03;;
26098;SDS011;13860;52.370;6.764;2023-12-20T17:05:23;17.63;;;2.88;;
26098;SDS011;13860;52.370;6.764;2023-12-20T17:08:28;18.40;;;3.65;;
26098;SDS011;13860;52.370;6.764;2023-12-20T17:11:37;21.73;;;3.58;;
26098;SDS011;13860;52.370;6.764;2023-12-20T17:14:42;10.32;;;2.45;;
26098;SDS011;13860;52.370;6.764;2023-12-20T17:17:50;16.55;;;2.60;;
26098;SDS011;13860;52.370;6.764;2023-12-20T17:20:59;23.40;;;3.85;;
26098;SDS011;13860;52.370;6.764;2023-12-20T17:24:06;10.32;;;2.47;;
26098;SDS011;13860;52.370;6.764;2023-12-20T17:27:12;20.92;;;3.63;;
26098;SDS011;13860;52.370;6.764;2023-12-20T17:30:20;20.63;;;3.78;;
26098;SDS011;13860;52.370;6.764;2023-12-20T17:33:26;23.08;;;4.80;;
26098;SDS011;13860;52.370;6.764;2023-12-20T17:36:36;12.23;;;2.97;;
26098;SDS011;13860;52.370;6.764;2023-12-20T17:39:42;12.50;;;3.92;;
26098;SDS011;13860;52.370;6.764;2023-12-20T17:42:49;22.48;;;3.75;;
26098;SDS011;13860;52.370;6.764;2023-12-20T17:45:55;18.55;;;5.13;;
26098;SDS011;13860;52.370;6.764;2023-12-20T17:49:03;12.13;;;4.15;;
26098;SDS011;13860;52.370;6.764;2023-12-20T17:52:12;18.30;;;4.60;;
26098;SDS011;13860;52.370;6.764;2023-12-20T17:55:19;30.65;;;5.95;;
26098;SDS011;13860;52.370;6.764;2023-12-20T17:58:25;16.48;;;5.28;;
26098;SDS011;13860;52.370;6.764;2023-12-20T18:01:33;20.40;;;5.55;;
26098;SDS011;13860;52.370;6.764;2023-12-20T18:04:39;20.63;;;5.85;;
26098;SDS011;13860;52.370;6.764;2023-12-20T18:07:50;23.90;;;6.10;;
26098;SDS011;13860;52.370;6.764;2023-12-20T18:10:55;20.23;;;6.05;;
26098;SDS011;13860;52.370;6.764;2023-12-20T18:14:03;23.08;;;6.22;;
26098;SDS011;13860;52.370;6.764;2023-12-20T18:17:09;26.75;;;6.43;;
26098;SDS011;13860;52.370;6.764;2023-12-20T18:20:17;19.70;;;6.25;;
26098;SDS011;13860;52.370;6.764;2023-12-20T18:23:25;21.25;;;7.50;;
26098;SDS011;13860;52.370;6.764;2023-12-20T18:26:33;13.48;;;5.70;;
26098;SDS011;13860;52.370;6.764;2023-12-20T18:29:41;23.52;;;5.95;;
26098;SDS011;13860;52.370;6.764;2023-12-20T18:32:49;18.27;;;7.25;;
26098;SDS011;13860;52.370;6.764;2023-12-20T18:35:55;14.85;;;5.47;;
26098;SDS011;13860;52.370;6.764;2023-12-20T18:39:05;17.60;;;6.90;;
26098;SDS011;13860;52.370;6.764;2023-12-20T18:42:11;14.50;;;5.68;;
26098;SDS011;13860;52.370;6.764;2023-12-20T18:45:18;20.38;;;5.53;;
26098;SDS011;13860;52.370;6.764;2023-12-20T18:48:24;13.93;;;6.00;;
26098;SDS011;13860;52.370;6.764;2023-12-20T18:51:32;17.30;;;5.60;;